sensor_id;sensor_type;location;lat;lon;timestamp;P1;durP1;ratioP1;P2;durP2;ratioP2
47725;SDS011;33483;48.294;16.388;2022-12-18T00:01:24;14.18;;;5.93;;
47725;SDS011;33483;48.294;16.388;2022-12-18T00:03:52;11.40;;;5.88;;
47725;SDS011;33483;48.294;16.388;2022-12-18T00:06:21;11.70;;;6.15;;
47725;SDS011;33483;48.294;16.388;2022-12-18T00:08:49;15.93;;;7.68;;
47725;SDS011;33483;48.294;16.388;2022-12-18T00:11:18;14.70;;;7.07;;
47725;SDS011;33483;48.294;16.388;2022-12-18T00:13:50;17.48;;;8.43;;
47725;SDS011;33483;48.294;16.388;2022-12-18T00:16:20;19.35;;;8.88;;
47725;SDS011;33483;48.294;16.388;2022-12-18T00:18:49;22.05;;;9.10;;
47725;SDS011;33483;48.294;16.388;2022-12-18T00:21:18;18.92;;;8.85;;
47725;SDS011;33483;48.294;16.388;2022-12-18T00:23:46;18.70;;;8.85;;
47725;SDS011;33483;48.294;16.388;2022-12-18T00:26:19;17.38;;;8.55;;
47725;SDS011;33483;48.294;16.388;2022-12-18T00:31:19;16.23;;;8.25;;
47725;SDS011;33483;48.294;16.388;2022-12-18T00:33:48;17.75;;;9.00;;
47725;SDS011;33483;48.294;16.388;2022-12-18T00:36:22;20.25;;;8.80;;
47725;SDS011;33483;48.294;16.388;2022-12-18T00:38:51;17.13;;;8.82;;
47725;SDS011;33483;48.294;16.388;2022-12-18T00:41:20;16.67;;;8.80;;
47725;SDS011;33483;48.294;16.388;2022-12-18T00:44:14;17.13;;;8.63;;
47725;SDS011;33483;48.294;16.388;2022-12-18T00:46:46;16.17;;;8.30;;
47725;SDS011;33483;48.294;16.388;2022-12-18T00:49:17;12.27;;;7.70;;
47725;SDS011;33483;48.294;16.388;2022-12-18T00:51:46;16.23;;;8.02;;
47725;SDS011;33483;48.294;16.388;2022-12-18T00:54:14;19.77;;;9.07;;
47725;SDS011;33483;48.294;16.388;2022-12-18T00:56:42;14.88;;;8.85;;
47725;SDS011;33483;48.294;16.388;2022-12-18T00:59:17;18.27;;;9.32;;
47725;SDS011;33483;48.294;16.388;2022-12-18T01:01:45;20.40;;;9.95;;
47725;SDS011;33483;48.294;16.388;2022-12-18T01:04:14;21.23;;;9.95;;
47725;SDS011;33483;48.294;16.388;2022-12-18T01:06:44;24.15;;;10.05;;
47725;SDS011;33483;48.294;16.388;2022-12-18T01:09:12;19.60;;;10.27;;
47725;SDS011;33483;48.294;16.388;2022-12-18T01:11:40;16.83;;;9.30;;
47725;SDS011;33483;48.294;16.388;2022-12-18T01:14:07;23.52;;;10.60;;
47725;SDS011;33483;48.294;16.388;2022-12-18T01:16:36;19.85;;;10.52;;
47725;SDS011;33483;48.294;16.388;2022-12-18T01:19:04;25.10;;;10.95;;
47725;SDS011;33483;48.294;16.388;2022-12-18T01:21:32;27.48;;;12.60;;
47725;SDS011;33483;48.294;16.388;2022-12-18T01:24:02;23.95;;;11.85;;
47725;SDS011;33483;48.294;16.388;2022-12-18T01:26:30;23.45;;;10.48;;
47725;SDS011;33483;48.294;16.388;2022-12-18T01:29:00;24.48;;;10.85;;
47725;SDS011;33483;48.294;16.388;2022-12-18T01:31:29;25.00;;;11.93;;
47725;SDS011;33483;48.294;16.388;2022-12-18T01:33:59;19.58;;;10.18;;
47725;SDS011;33483;48.294;16.388;2022-12-18T01:36:29;20.60;;;10.60;;
47725;SDS011;33483;48.294;16.388;2022-12-18T01:38:59;23.90;;;11.45;;
47725;SDS011;33483;48.294;16.388;2022-12-18T01:41:28;22.17;;;10.60;;
47725;SDS011;33483;48.294;16.388;2022-12-18T01:50:11;26.40;;;11.43;;
47725;SDS011;33483;48.294;16.388;2022-12-18T01:52:42;23.13;;;8.77;;
47725;SDS011;33483;48.294;16.388;2022-12-18T01:55:14;24.45;;;11.55;;
47725;SDS011;33483;48.294;16.388;2022-12-18T01:57:48;28.85;;;12.18;;
47725;SDS011;33483;48.294;16.388;2022-12-18T02:00:20;21.15;;;11.27;;
47725;SDS011;33483;48.294;16.388;2022-12-18T02:02:51;22.33;;;11.70;;
47725;SDS011;33483;48.294;16.388;2022-12-18T02:05:26;24.77;;;11.13;;
47725;SDS011;33483;48.294;16.388;2022-12-18T02:08:20;26.83;;;12.25;;
47725;SDS011;33483;48.294;16.388;2022-12-18T02:10:57;27.90;;;13.50;;
47725;SDS011;33483;48.294;16.388;2022-12-18T02:13:57;29.33;;;13.07;;
47725;SDS011;33483;48.294;16.388;2022-12-18T02:19:00;26.35;;;10.90;;
47725;SDS011;33483;48.294;16.388;2022-12-18T02:21:42;29.33;;;13.80;;
47725;SDS011;33483;48.294;16.388;2022-12-18T02:26:56;27.25;;;12.57;;
47725;SDS011;33483;48.294;16.388;2022-12-18T02:29:47;26.33;;;12.73;;
47725;SDS011;33483;48.294;16.388;2022-12-18T02:32:25;29.15;;;12.68;;
47725;SDS011;33483;48.294;16.388;2022-12-18T02:34:56;35.17;;;13.80;;
47725;SDS011;33483;48.294;16.388;2022-12-18T02:37:27;30.15;;;13.85;;
47725;SDS011;33483;48.294;16.388;2022-12-18T02:40:00;26.67;;;13.05;;
47725;SDS011;33483;48.294;16.388;2022-12-18T02:42:31;28.23;;;13.30;;
47725;SDS011;33483;48.294;16.388;2022-12-18T02:45:04;28.52;;;12.85;;
47725;SDS011;33483;48.294;16.388;2022-12-18T02:47:37;25.08;;;12.73;;
47725;SDS011;33483;48.294;16.388;2022-12-18T02:55:53;28.02;;;12.82;;
47725;SDS011;33483;48.294;16.388;2022-12-18T03:01:23;26.70;;;12.75;;
47725;SDS011;33483;48.294;16.388;2022-12-18T03:03:55;24.75;;;12.23;;
47725;SDS011;33483;48.294;16.388;2022-12-18T03:06:35;28.52;;;12.88;;
47725;SDS011;33483;48.294;16.388;2022-12-18T03:09:11;31.08;;;13.82;;
47725;SDS011;33483;48.294;16.388;2022-12-18T03:11:48;33.30;;;14.95;;
47725;SDS011;33483;48.294;16.388;2022-12-18T03:14:39;29.08;;;13.60;;
47725;SDS011;33483;48.294;16.388;2022-12-18T03:17:10;26.83;;;13.95;;
47725;SDS011;33483;48.294;16.388;2022-12-18T03:19:41;27.65;;;14.48;;
47725;SDS011;33483;48.294;16.388;2022-12-18T03:22:11;27.95;;;14.52;;
47725;SDS011;33483;48.294;16.388;2022-12-18T03:24:44;30.35;;;14.38;;
47725;SDS011;33483;48.294;16.388;2022-12-18T03:27:14;29.08;;;13.88;;
47725;SDS011;33483;48.294;16.388;2022-12-18T03:29:48;28.15;;;13.15;;
47725;SDS011;33483;48.294;16.388;2022-12-18T03:32:28;30.58;;;15.05;;
47725;SDS011;33483;48.294;16.388;2022-12-18T03:34:59;28.23;;;13.07;;
47725;SDS011;33483;48.294;16.388;2022-12-18T03:37:34;30.13;;;13.25;;
47725;SDS011;33483;48.294;16.388;2022-12-18T03:40:02;27.63;;;13.07;;
47725;SDS011;33483;48.294;16.388;2022-12-18T03:45:24;31.73;;;14.43;;
47725;SDS011;33483;48.294;16.388;2022-12-18T03:48:02;32.08;;;14.60;;
47725;SDS011;33483;48.294;16.388;2022-12-18T03:53:33;31.13;;;14.93;;
47725;SDS011;33483;48.294;16.388;2022-12-18T03:56:06;33.20;;;14.75;;
47725;SDS011;33483;48.294;16.388;2022-12-18T03:58:39;32.92;;;15.13;;
47725;SDS011;33483;48.294;16.388;2022-12-18T04:01:23;36.80;;;14.73;;
47725;SDS011;33483;48.294;16.388;2022-12-18T04:03:56;40.42;;;15.18;;
47725;SDS011;33483;48.294;16.388;2022-12-18T04:06:32;31.50;;;13.95;;
47725;SDS011;33483;48.294;16.388;2022-12-18T04:09:00;34.97;;;16.48;;
47725;SDS011;33483;48.294;16.388;2022-12-18T04:11:30;32.63;;;15.27;;
47725;SDS011;33483;48.294;16.388;2022-12-18T04:13:59;33.83;;;15.45;;
47725;SDS011;33483;48.294;16.388;2022-12-18T04:16:31;27.20;;;14.13;;
47725;SDS011;33483;48.294;16.388;2022-12-18T04:19:02;37.10;;;15.50;;
47725;SDS011;33483;48.294;16.388;2022-12-18T04:21:36;35.42;;;14.23;;
47725;SDS011;33483;48.294;16.388;2022-12-18T04:24:04;30.88;;;14.30;;
47725;SDS011;33483;48.294;16.388;2022-12-18T04:26:38;31.73;;;14.27;;
47725;SDS011;33483;48.294;16.388;2022-12-18T04:29:15;42.60;;;16.67;;
47725;SDS011;33483;48.294;16.388;2022-12-18T04:31:43;42.63;;;16.85;;
47725;SDS011;33483;48.294;16.388;2022-12-18T04:34:10;41.95;;;16.13;;
47725;SDS011;33483;48.294;16.388;2022-12-18T04:36:46;33.75;;;15.85;;
47725;SDS011;33483;48.294;16.388;2022-12-18T04:39:17;34.78;;;15.32;;
47725;SDS011;33483;48.294;16.388;2022-12-18T04:41:47;31.75;;;15.02;;
47725;SDS011;33483;48.294;16.388;2022-12-18T04:44:15;35.33;;;15.70;;
47725;SDS011;33483;48.294;16.388;2022-12-18T04:46:43;34.30;;;14.70;;
47725;SDS011;33483;48.294;16.388;2022-12-18T04:49:13;32.90;;;14.50;;
47725;SDS011;33483;48.294;16.388;2022-12-18T04:51:40;30.05;;;14.57;;
47725;SDS011;33483;48.294;16.388;2022-12-18T04:54:07;34.58;;;15.13;;
47725;SDS011;33483;48.294;16.388;2022-12-18T04:56:34;37.03;;;14.40;;
47725;SDS011;33483;48.294;16.388;2022-12-18T04:59:01;36.72;;;15.07;;
47725;SDS011;33483;48.294;16.388;2022-12-18T05:01:28;33.30;;;14.90;;
47725;SDS011;33483;48.294;16.388;2022-12-18T05:04:03;41.03;;;15.82;;
47725;SDS011;33483;48.294;16.388;2022-12-18T05:06:30;38.17;;;15.52;;
47725;SDS011;33483;48.294;16.388;2022-12-18T05:08:58;32.97;;;14.63;;
47725;SDS011;33483;48.294;16.388;2022-12-18T05:11:25;37.92;;;15.63;;
47725;SDS011;33483;48.294;16.388;2022-12-18T05:13:52;34.40;;;15.73;;
47725;SDS011;33483;48.294;16.388;2022-12-18T05:16:19;43.40;;;16.20;;
47725;SDS011;33483;48.294;16.388;2022-12-18T05:18:46;42.28;;;16.10;;
47725;SDS011;33483;48.294;16.388;2022-12-18T05:21:13;39.55;;;16.35;;
47725;SDS011;33483;48.294;16.388;2022-12-18T05:23:41;32.63;;;15.05;;
47725;SDS011;33483;48.294;16.388;2022-12-18T05:26:16;37.70;;;15.40;;
47725;SDS011;33483;48.294;16.388;2022-12-18T05:31:12;32.55;;;14.30;;
47725;SDS011;33483;48.294;16.388;2022-12-18T05:33:40;37.38;;;14.98;;
47725;SDS011;33483;48.294;16.388;2022-12-18T05:36:08;38.67;;;16.45;;
47725;SDS011;33483;48.294;16.388;2022-12-18T05:38:37;39.78;;;15.60;;
47725;SDS011;33483;48.294;16.388;2022-12-18T05:41:06;41.15;;;16.73;;
47725;SDS011;33483;48.294;16.388;2022-12-18T05:43:35;38.00;;;16.83;;
47725;SDS011;33483;48.294;16.388;2022-12-18T05:46:05;41.63;;;17.30;;
47725;SDS011;33483;48.294;16.388;2022-12-18T05:48:34;39.72;;;16.92;;
47725;SDS011;33483;48.294;16.388;2022-12-18T05:51:05;37.92;;;15.25;;
47725;SDS011;33483;48.294;16.388;2022-12-18T05:53:34;40.45;;;16.95;;
47725;SDS011;33483;48.294;16.388;2022-12-18T05:56:06;39.58;;;18.40;;
47725;SDS011;33483;48.294;16.388;2022-12-18T05:58:35;42.67;;;17.38;;
47725;SDS011;33483;48.294;16.388;2022-12-18T06:01:11;35.63;;;15.57;;
47725;SDS011;33483;48.294;16.388;2022-12-18T06:03:40;38.08;;;16.60;;
47725;SDS011;33483;48.294;16.388;2022-12-18T06:06:15;36.03;;;16.35;;
47725;SDS011;33483;48.294;16.388;2022-12-18T06:08:44;37.17;;;16.42;;
47725;SDS011;33483;48.294;16.388;2022-12-18T06:11:12;40.10;;;16.15;;
47725;SDS011;33483;48.294;16.388;2022-12-18T06:13:43;41.58;;;17.23;;
47725;SDS011;33483;48.294;16.388;2022-12-18T06:16:10;39.03;;;17.35;;
47725;SDS011;33483;48.294;16.388;2022-12-18T06:18:38;46.25;;;18.38;;
47725;SDS011;33483;48.294;16.388;2022-12-18T06:21:05;44.13;;;18.90;;
47725;SDS011;33483;48.294;16.388;2022-12-18T06:23:35;49.65;;;18.30;;
47725;SDS011;33483;48.294;16.388;2022-12-18T06:26:04;42.13;;;17.35;;
47725;SDS011;33483;48.294;16.388;2022-12-18T06:28:32;40.30;;;17.30;;
47725;SDS011;33483;48.294;16.388;2022-12-18T06:30:59;35.42;;;16.42;;
47725;SDS011;33483;48.294;16.388;2022-12-18T06:33:29;40.10;;;16.70;;
47725;SDS011;33483;48.294;16.388;2022-12-18T06:36:01;36.08;;;16.95;;
47725;SDS011;33483;48.294;16.388;2022-12-18T06:38:31;46.15;;;18.60;;
47725;SDS011;33483;48.294;16.388;2022-12-18T06:40:59;46.08;;;17.63;;
47725;SDS011;33483;48.294;16.388;2022-12-18T06:43:26;40.85;;;17.63;;
47725;SDS011;33483;48.294;16.388;2022-12-18T06:45:59;43.20;;;18.50;;
47725;SDS011;33483;48.294;16.388;2022-12-18T06:48:27;43.30;;;17.95;;
47725;SDS011;33483;48.294;16.388;2022-12-18T06:50:55;47.20;;;18.83;;
47725;SDS011;33483;48.294;16.388;2022-12-18T06:53:22;45.72;;;18.50;;
47725;SDS011;33483;48.294;16.388;2022-12-18T06:55:49;42.97;;;18.20;;
47725;SDS011;33483;48.294;16.388;2022-12-18T06:58:17;46.67;;;19.90;;
47725;SDS011;33483;48.294;16.388;2022-12-18T07:00:44;42.40;;;18.25;;
47725;SDS011;33483;48.294;16.388;2022-12-18T07:03:14;48.42;;;19.15;;
47725;SDS011;33483;48.294;16.388;2022-12-18T07:05:41;44.90;;;20.05;;
47725;SDS011;33483;48.294;16.388;2022-12-18T07:08:11;47.25;;;19.25;;
47725;SDS011;33483;48.294;16.388;2022-12-18T07:10:41;50.60;;;21.13;;
47725;SDS011;33483;48.294;16.388;2022-12-18T07:13:18;47.65;;;20.92;;
47725;SDS011;33483;48.294;16.388;2022-12-18T07:15:45;43.88;;;19.55;;
47725;SDS011;33483;48.294;16.388;2022-12-18T07:18:15;44.45;;;19.08;;
47725;SDS011;33483;48.294;16.388;2022-12-18T07:20:42;50.63;;;21.60;;
47725;SDS011;33483;48.294;16.388;2022-12-18T07:23:09;72.78;;;26.92;;
47725;SDS011;33483;48.294;16.388;2022-12-18T07:25:36;129.55;;;42.88;;
47725;SDS011;33483;48.294;16.388;2022-12-18T07:28:04;82.57;;;31.58;;
47725;SDS011;33483;48.294;16.388;2022-12-18T07:30:31;62.40;;;26.67;;
47725;SDS011;33483;48.294;16.388;2022-12-18T07:32:58;59.38;;;24.23;;
47725;SDS011;33483;48.294;16.388;2022-12-18T07:35:25;45.35;;;23.58;;
47725;SDS011;33483;48.294;16.388;2022-12-18T07:37:53;47.72;;;22.80;;
47725;SDS011;33483;48.294;16.388;2022-12-18T07:40:20;46.60;;;22.38;;
47725;SDS011;33483;48.294;16.388;2022-12-18T07:42:47;43.92;;;21.45;;
47725;SDS011;33483;48.294;16.388;2022-12-18T07:45:14;42.80;;;19.60;;
47725;SDS011;33483;48.294;16.388;2022-12-18T07:47:41;49.70;;;21.10;;
47725;SDS011;33483;48.294;16.388;2022-12-18T07:50:08;35.08;;;19.70;;
47725;SDS011;33483;48.294;16.388;2022-12-18T07:52:36;44.17;;;21.92;;
47725;SDS011;33483;48.294;16.388;2022-12-18T07:55:03;38.97;;;17.45;;
47725;SDS011;33483;48.294;16.388;2022-12-18T07:57:33;48.15;;;22.80;;
47725;SDS011;33483;48.294;16.388;2022-12-18T08:00:16;46.83;;;20.80;;
47725;SDS011;33483;48.294;16.388;2022-12-18T08:02:44;38.63;;;18.58;;
47725;SDS011;33483;48.294;16.388;2022-12-18T08:05:11;40.05;;;18.35;;
47725;SDS011;33483;48.294;16.388;2022-12-18T08:07:40;44.05;;;20.25;;
47725;SDS011;33483;48.294;16.388;2022-12-18T08:10:07;41.95;;;19.42;;
47725;SDS011;33483;48.294;16.388;2022-12-18T08:12:37;38.63;;;17.42;;
47725;SDS011;33483;48.294;16.388;2022-12-18T08:15:05;39.22;;;18.38;;
47725;SDS011;33483;48.294;16.388;2022-12-18T08:17:33;39.97;;;18.50;;
47725;SDS011;33483;48.294;16.388;2022-12-18T08:20:01;44.95;;;20.35;;
47725;SDS011;33483;48.294;16.388;2022-12-18T08:22:33;47.50;;;20.63;;
47725;SDS011;33483;48.294;16.388;2022-12-18T08:25:02;40.13;;;18.67;;
47725;SDS011;33483;48.294;16.388;2022-12-18T08:27:31;38.03;;;19.17;;
47725;SDS011;33483;48.294;16.388;2022-12-18T08:29:58;38.80;;;18.73;;
47725;SDS011;33483;48.294;16.388;2022-12-18T08:32:26;47.42;;;21.45;;
47725;SDS011;33483;48.294;16.388;2022-12-18T08:34:59;42.88;;;19.77;;
47725;SDS011;33483;48.294;16.388;2022-12-18T08:37:26;42.15;;;18.88;;
47725;SDS011;33483;48.294;16.388;2022-12-18T08:39:53;41.53;;;20.35;;
47725;SDS011;33483;48.294;16.388;2022-12-18T08:42:20;44.97;;;20.67;;
47725;SDS011;33483;48.294;16.388;2022-12-18T08:45:06;45.70;;;22.60;;
47725;SDS011;33483;48.294;16.388;2022-12-18T08:47:34;47.50;;;21.13;;
47725;SDS011;33483;48.294;16.388;2022-12-18T08:50:01;44.60;;;21.25;;
47725;SDS011;33483;48.294;16.388;2022-12-18T08:52:28;43.47;;;19.83;;
47725;SDS011;33483;48.294;16.388;2022-12-18T08:54:59;46.33;;;21.67;;
47725;SDS011;33483;48.294;16.388;2022-12-18T08:57:27;46.17;;;21.00;;
47725;SDS011;33483;48.294;16.388;2022-12-18T08:59:54;44.60;;;21.20;;
47725;SDS011;33483;48.294;16.388;2022-12-18T09:02:24;44.92;;;20.00;;
47725;SDS011;33483;48.294;16.388;2022-12-18T09:04:52;44.83;;;19.92;;
47725;SDS011;33483;48.294;16.388;2022-12-18T09:07:23;39.67;;;17.75;;
47725;SDS011;33483;48.294;16.388;2022-12-18T09:09:51;38.17;;;16.75;;
47725;SDS011;33483;48.294;16.388;2022-12-18T09:12:18;36.80;;;16.67;;
47725;SDS011;33483;48.294;16.388;2022-12-18T09:14:46;34.67;;;16.65;;
47725;SDS011;33483;48.294;16.388;2022-12-18T09:17:13;37.38;;;17.67;;
47725;SDS011;33483;48.294;16.388;2022-12-18T09:19:43;40.10;;;17.48;;
47725;SDS011;33483;48.294;16.388;2022-12-18T09:22:10;38.70;;;18.15;;
47725;SDS011;33483;48.294;16.388;2022-12-18T09:24:38;36.17;;;18.20;;
47725;SDS011;33483;48.294;16.388;2022-12-18T09:27:05;36.95;;;17.42;;
47725;SDS011;33483;48.294;16.388;2022-12-18T09:29:33;38.00;;;16.17;;
47725;SDS011;33483;48.294;16.388;2022-12-18T09:32:00;39.58;;;17.35;;
47725;SDS011;33483;48.294;16.388;2022-12-18T09:34:29;39.10;;;16.45;;
47725;SDS011;33483;48.294;16.388;2022-12-18T09:36:56;36.55;;;16.58;;
47725;SDS011;33483;48.294;16.388;2022-12-18T09:39:24;34.13;;;17.30;;
47725;SDS011;33483;48.294;16.388;2022-12-18T09:41:54;35.10;;;15.02;;
47725;SDS011;33483;48.294;16.388;2022-12-18T09:44:39;37.83;;;17.15;;
47725;SDS011;33483;48.294;16.388;2022-12-18T09:47:17;32.88;;;14.50;;
47725;SDS011;33483;48.294;16.388;2022-12-18T09:49:52;34.70;;;15.25;;
47725;SDS011;33483;48.294;16.388;2022-12-18T09:52:25;40.72;;;17.67;;
47725;SDS011;33483;48.294;16.388;2022-12-18T09:57:45;39.72;;;16.70;;
47725;SDS011;33483;48.294;16.388;2022-12-18T10:00:18;37.07;;;17.53;;
47725;SDS011;33483;48.294;16.388;2022-12-18T10:02:48;40.55;;;18.98;;
47725;SDS011;33483;48.294;16.388;2022-12-18T10:05:29;40.83;;;17.77;;
47725;SDS011;33483;48.294;16.388;2022-12-18T10:08:42;41.13;;;16.55;;
47725;SDS011;33483;48.294;16.388;2022-12-18T10:24:54;40.60;;;16.77;;
47725;SDS011;33483;48.294;16.388;2022-12-18T10:27:28;39.15;;;18.33;;
47725;SDS011;33483;48.294;16.388;2022-12-18T10:29:56;42.97;;;19.35;;
47725;SDS011;33483;48.294;16.388;2022-12-18T10:32:26;51.05;;;19.92;;
47725;SDS011;33483;48.294;16.388;2022-12-18T10:34:56;48.88;;;19.83;;
47725;SDS011;33483;48.294;16.388;2022-12-18T10:37:27;52.22;;;21.17;;
47725;SDS011;33483;48.294;16.388;2022-12-18T10:40:07;50.97;;;20.67;;
47725;SDS011;33483;48.294;16.388;2022-12-18T10:42:46;41.83;;;17.75;;
47725;SDS011;33483;48.294;16.388;2022-12-18T10:45:29;33.20;;;15.18;;
47725;SDS011;33483;48.294;16.388;2022-12-18T10:47:57;37.35;;;16.85;;
47725;SDS011;33483;48.294;16.388;2022-12-18T10:50:32;39.00;;;18.02;;
47725;SDS011;33483;48.294;16.388;2022-12-18T10:53:22;48.67;;;16.83;;
47725;SDS011;33483;48.294;16.388;2022-12-18T10:55:52;81.00;;;32.60;;
47725;SDS011;33483;48.294;16.388;2022-12-18T10:58:24;48.40;;;19.35;;
47725;SDS011;33483;48.294;16.388;2022-12-18T11:01:26;45.47;;;17.40;;
47725;SDS011;33483;48.294;16.388;2022-12-18T11:04:09;39.13;;;17.85;;
47725;SDS011;33483;48.294;16.388;2022-12-18T11:06:35;37.95;;;17.73;;
47725;SDS011;33483;48.294;16.388;2022-12-18T11:09:21;33.97;;;15.82;;
47725;SDS011;33483;48.294;16.388;2022-12-18T11:11:51;36.15;;;16.92;;
47725;SDS011;33483;48.294;16.388;2022-12-18T11:14:25;34.97;;;15.45;;
47725;SDS011;33483;48.294;16.388;2022-12-18T11:16:55;37.25;;;17.27;;
47725;SDS011;33483;48.294;16.388;2022-12-18T11:19:45;38.97;;;17.10;;
47725;SDS011;33483;48.294;16.388;2022-12-18T11:22:20;38.97;;;17.50;;
47725;SDS011;33483;48.294;16.388;2022-12-18T11:28:05;37.92;;;16.85;;
47725;SDS011;33483;48.294;16.388;2022-12-18T11:31:16;38.58;;;17.95;;
47725;SDS011;33483;48.294;16.388;2022-12-18T11:33:57;42.67;;;17.77;;
47725;SDS011;33483;48.294;16.388;2022-12-18T11:36:51;46.47;;;18.15;;
47725;SDS011;33483;48.294;16.388;2022-12-18T11:39:34;37.33;;;17.33;;
47725;SDS011;33483;48.294;16.388;2022-12-18T11:42:15;36.88;;;17.58;;
47725;SDS011;33483;48.294;16.388;2022-12-18T11:50:09;39.13;;;18.48;;
47725;SDS011;33483;48.294;16.388;2022-12-18T11:52:42;42.38;;;18.67;;
47725;SDS011;33483;48.294;16.388;2022-12-18T11:55:19;40.45;;;18.33;;
47725;SDS011;33483;48.294;16.388;2022-12-18T12:00:25;29.23;;;13.80;;
47725;SDS011;33483;48.294;16.388;2022-12-18T12:05:55;39.55;;;17.40;;
47725;SDS011;33483;48.294;16.388;2022-12-18T12:17:28;42.78;;;18.80;;
47725;SDS011;33483;48.294;16.388;2022-12-18T12:28:40;37.45;;;17.40;;
47725;SDS011;33483;48.294;16.388;2022-12-18T12:34:18;40.40;;;18.08;;
47725;SDS011;33483;48.294;16.388;2022-12-18T12:39:45;37.97;;;16.20;;
47725;SDS011;33483;48.294;16.388;2022-12-18T12:42:31;41.17;;;17.67;;
47725;SDS011;33483;48.294;16.388;2022-12-18T12:45:40;38.75;;;17.48;;
47725;SDS011;33483;48.294;16.388;2022-12-18T12:48:13;42.13;;;16.50;;
47725;SDS011;33483;48.294;16.388;2022-12-18T12:50:45;37.10;;;17.90;;
47725;SDS011;33483;48.294;16.388;2022-12-18T12:53:22;37.70;;;16.67;;
47725;SDS011;33483;48.294;16.388;2022-12-18T12:55:53;46.78;;;18.67;;
47725;SDS011;33483;48.294;16.388;2022-12-18T12:58:33;47.92;;;19.00;;
47725;SDS011;33483;48.294;16.388;2022-12-18T13:01:13;46.13;;;19.17;;
47725;SDS011;33483;48.294;16.388;2022-12-18T13:03:55;41.65;;;18.30;;
47725;SDS011;33483;48.294;16.388;2022-12-18T13:06:28;48.63;;;21.08;;
47725;SDS011;33483;48.294;16.388;2022-12-18T13:09:10;64.65;;;27.02;;
47725;SDS011;33483;48.294;16.388;2022-12-18T13:14:33;44.75;;;18.40;;
47725;SDS011;33483;48.294;16.388;2022-12-18T13:20:08;49.05;;;19.95;;
47725;SDS011;33483;48.294;16.388;2022-12-18T13:22:38;54.33;;;23.48;;
47725;SDS011;33483;48.294;16.388;2022-12-18T13:28:13;45.25;;;19.27;;
47725;SDS011;33483;48.294;16.388;2022-12-18T13:38:36;55.25;;;22.70;;
47725;SDS011;33483;48.294;16.388;2022-12-18T13:43:44;83.55;;;32.70;;
47725;SDS011;33483;48.294;16.388;2022-12-18T13:46:17;71.05;;;29.50;;
47725;SDS011;33483;48.294;16.388;2022-12-18T13:49:15;72.55;;;28.63;;
47725;SDS011;33483;48.294;16.388;2022-12-18T13:51:46;65.65;;;27.35;;
47725;SDS011;33483;48.294;16.388;2022-12-18T13:54:50;54.10;;;23.65;;
47725;SDS011;33483;48.294;16.388;2022-12-18T13:59:52;53.03;;;21.25;;
47725;SDS011;33483;48.294;16.388;2022-12-18T14:02:23;54.15;;;21.55;;
47725;SDS011;33483;48.294;16.388;2022-12-18T14:04:53;49.80;;;19.88;;
47725;SDS011;33483;48.294;16.388;2022-12-18T14:07:27;47.33;;;19.77;;
47725;SDS011;33483;48.294;16.388;2022-12-18T14:10:11;46.13;;;19.85;;
47725;SDS011;33483;48.294;16.388;2022-12-18T14:13:04;43.40;;;19.42;;
47725;SDS011;33483;48.294;16.388;2022-12-18T14:15:35;51.30;;;20.75;;
47725;SDS011;33483;48.294;16.388;2022-12-18T14:20:54;51.97;;;21.77;;
47725;SDS011;33483;48.294;16.388;2022-12-18T14:23:34;54.40;;;22.30;;
47725;SDS011;33483;48.294;16.388;2022-12-18T14:28:58;50.42;;;22.83;;
47725;SDS011;33483;48.294;16.388;2022-12-18T14:31:45;52.58;;;19.23;;
47725;SDS011;33483;48.294;16.388;2022-12-18T14:34:16;49.63;;;20.52;;
47725;SDS011;33483;48.294;16.388;2022-12-18T14:36:51;48.58;;;19.73;;
47725;SDS011;33483;48.294;16.388;2022-12-18T14:39:20;48.38;;;20.65;;
47725;SDS011;33483;48.294;16.388;2022-12-18T14:41:51;57.90;;;22.33;;
47725;SDS011;33483;48.294;16.388;2022-12-18T14:44:20;49.78;;;21.75;;
47725;SDS011;33483;48.294;16.388;2022-12-18T14:46:49;56.33;;;20.70;;
47725;SDS011;33483;48.294;16.388;2022-12-18T14:49:26;59.65;;;21.33;;
47725;SDS011;33483;48.294;16.388;2022-12-18T14:52:01;51.67;;;21.45;;
47725;SDS011;33483;48.294;16.388;2022-12-18T14:54:34;59.03;;;22.48;;
47725;SDS011;33483;48.294;16.388;2022-12-18T14:57:04;58.63;;;22.92;;
47725;SDS011;33483;48.294;16.388;2022-12-18T14:59:40;64.18;;;23.25;;
47725;SDS011;33483;48.294;16.388;2022-12-18T15:02:10;62.50;;;22.60;;
47725;SDS011;33483;48.294;16.388;2022-12-18T15:05:01;60.33;;;23.92;;
47725;SDS011;33483;48.294;16.388;2022-12-18T15:07:40;52.38;;;21.23;;
47725;SDS011;33483;48.294;16.388;2022-12-18T15:12:42;58.33;;;21.75;;
47725;SDS011;33483;48.294;16.388;2022-12-18T15:20:40;61.38;;;21.23;;
47725;SDS011;33483;48.294;16.388;2022-12-18T15:26:18;58.50;;;21.27;;
47725;SDS011;33483;48.294;16.388;2022-12-18T15:28:51;52.53;;;19.75;;
47725;SDS011;33483;48.294;16.388;2022-12-18T15:31:29;56.10;;;22.20;;
47725;SDS011;33483;48.294;16.388;2022-12-18T15:36:39;51.63;;;21.48;;
47725;SDS011;33483;48.294;16.388;2022-12-18T15:39:09;51.13;;;20.27;;
47725;SDS011;33483;48.294;16.388;2022-12-18T15:41:42;57.50;;;20.38;;
47725;SDS011;33483;48.294;16.388;2022-12-18T15:44:30;48.60;;;19.77;;
47725;SDS011;33483;48.294;16.388;2022-12-18T15:47:02;50.40;;;21.20;;
47725;SDS011;33483;48.294;16.388;2022-12-18T15:49:30;57.30;;;20.63;;
47725;SDS011;33483;48.294;16.388;2022-12-18T15:51:59;63.75;;;25.80;;
47725;SDS011;33483;48.294;16.388;2022-12-18T15:54:30;57.28;;;23.08;;
47725;SDS011;33483;48.294;16.388;2022-12-18T15:57:17;53.45;;;21.10;;
47725;SDS011;33483;48.294;16.388;2022-12-18T15:59:52;56.72;;;22.17;;
47725;SDS011;33483;48.294;16.388;2022-12-18T16:02:22;54.55;;;20.38;;
47725;SDS011;33483;48.294;16.388;2022-12-18T16:04:51;62.50;;;21.40;;
47725;SDS011;33483;48.294;16.388;2022-12-18T16:07:21;59.00;;;22.80;;
47725;SDS011;33483;48.294;16.388;2022-12-18T16:09:52;56.22;;;21.98;;
47725;SDS011;33483;48.294;16.388;2022-12-18T16:12:22;64.43;;;24.67;;
47725;SDS011;33483;48.294;16.388;2022-12-18T16:14:52;61.47;;;24.67;;
47725;SDS011;33483;48.294;16.388;2022-12-18T16:17:23;61.45;;;21.60;;
47725;SDS011;33483;48.294;16.388;2022-12-18T16:19:51;53.38;;;21.13;;
47725;SDS011;33483;48.294;16.388;2022-12-18T16:22:21;63.20;;;24.35;;
47725;SDS011;33483;48.294;16.388;2022-12-18T16:24:51;49.70;;;20.98;;
47725;SDS011;33483;48.294;16.388;2022-12-18T16:27:21;58.70;;;25.00;;
47725;SDS011;33483;48.294;16.388;2022-12-18T16:29:50;52.67;;;20.83;;
47725;SDS011;33483;48.294;16.388;2022-12-18T16:32:20;54.53;;;21.35;;
47725;SDS011;33483;48.294;16.388;2022-12-18T16:34:51;52.47;;;20.63;;
47725;SDS011;33483;48.294;16.388;2022-12-18T16:37:22;57.95;;;22.48;;
47725;SDS011;33483;48.294;16.388;2022-12-18T16:39:54;64.05;;;24.42;;
47725;SDS011;33483;48.294;16.388;2022-12-18T16:42:23;56.05;;;21.98;;
47725;SDS011;33483;48.294;16.388;2022-12-18T16:44:52;62.22;;;23.10;;
47725;SDS011;33483;48.294;16.388;2022-12-18T16:47:20;48.60;;;21.10;;